Boothbay, ME

6:56 PM EDT on August 21, 2014 (GMT -0400)
KMEBOOTH4 | Change Station
CLOSE
Current Station
Personal Weather Station
Location: Boothbay, ME
Elevation: 56 ft
Nearby Weather Stations

Elev 56 ft 43.88 °N, 69.66 °W | Updated 6 minutes ago

Mostly Cloudy
Mostly Cloudy
64.0 °F
Feels Like 64.0 °F
N
0.0
Wind Variable Wind from NNE
Gusts 0.0 mph

Today
High -- | Low -- °F
--% Chance of Precip.
Yesterday
High -- | Low -- °F
Precip. -- in
5:49 AM 7:33 PM
Waning Crescent, 12% visible
Pressure 30.11 in
Visibility 10.0 miles
Clouds Mostly Cloudy 12000 ft
Dew Point 60 °F
Humidity 86%
Rainfall 0.00 in
Snow Depth Not available.
UV 0.0 out of 12
Pollen 8.00 out of 12
Ozone Good
Flu Activity Not available.
METAR KIWI 212253Z AUTO 00000KT 10SM BKN120 18/16 A3011 RMK AO2 SLP196 T01830156

More Conditions Fewer Conditions

Pressure 30.11 in
Visibility 10.0 miles
Clouds Mostly Cloudy 12000 ft
Dew Point 60 °F
Humidity 86%
Rainfall 0.00 in
Snow Depth Not available.
UV 0.0 out of 12
Pollen 8.00 out of 12
Ozone Good
Flu Activity Not available.
METAR KIWI 212253Z AUTO 00000KT 10SM BKN120 18/16 A3011 RMK AO2 SLP196 T01830156

More Conditions Fewer Conditions

10-Day Weather Forecast

Almanac

Astronomy

Aug. 21, 2014 Rise Set
Actual Time 5:49 AM EDT 7:33 PM EDT
Civil Twilight 5:18 AM EDT 8:03 PM EDT
Nautical Twilight 4:41 AM EDT 8:40 PM EDT
Astronomical Twilight 4:01 AM EDT 9:20 PM EDT
Moon 2:13 AM EDT 5:02 PM EDT
Length of Visible Light 14h 44m
Length of Day
13h 43m
Tomorrow will be 2m 47s shorter.
Waning Crescent, 12% of the Moon is Illuminated
Today
Waning Crescent
Aug 25
New
Sep 2
First Quarter
Sep 8
Full
Sep 15
Last Quarter

Today's Extremes

State Highs State Lows

Community

WunderPhotos

Upload Photos

1,746,044 photos uploaded!

WunderBlogs® & News

Nearby

Air Quality

  Air Quality AQ Index Pollutant
Yesterday Good
OZONE
Current Good
OZONE
Thursday Good
OZONE
Thursday Good
PM2.5
Friday Good
OZONE
Friday Good
PM2.5
Saturday Good
OZONE
Saturday Good
PM2.5

Snow Depth

Station Depth Elevation
No new snow has been reported.

Earthquake Activity

City Distance Mag. Time & Date
No recent earthquake activity has been reported nearby.
Minimum magnitude displayed is 2.5.

Coastal Water Temperatures

Place Temperature
Portland, ME 60.1 °F
Wells, ME 62.1 °F

Nearby Weather Stations